Vremea acum in Baia De Aries - Romania

Vrei sa afli care e starea vremii acum in Arad - Romania? Dorim sa iti furnizam starea vremii pentru Arad - Romania. Starea vremii Arad - Romania pentru astazi.

Vremea acum in Baia De Aries

Temperatura: 8 °C

Se simte ca: 6.9 °C
Innorat: 0 %
Precipitatii: 0 %
Presiune atmosferica: 1024 hPa
Umiditate: 71%
Vizibilitate: 10 km
Vantul bate din WNW cu 6.8 km/h

Evolutia vremii in Baia De Aries pe ore

Ora: 21:00
Parțial noros
Temperatura: 10.1°C
Sansa de precipitatii: 0%
Ora Descriere Temp Se simte Precipitatii Umiditate Vant
00:00Senin8.8°8.9°0%49%NE 3.2 KM/H
01:00Senin8.3°8.4°0%49%NE 3.2 KM/H
02:00Senin7.9°7.9°0%50%NE 2.9 KM/H
03:00Parțial noros7.8°7.8°0%49%NE 2.9 KM/H
04:00Senin7.7°7.7°0%48%NE 2.9 KM/H
05:00Parțial noros7.6°7.6°0%47%NNE 2.9 KM/H
06:00Parțial noros8.3°8.3°0%45%NE 2.9 KM/H
07:00Parțial noros9.1°9.1°0%44%NE 2.5 KM/H
08:00Parțial noros9.8°9.8°0%43%NE 2.5 KM/H
09:00Parțial noros12.5°12.5°0%37%E 2.9 KM/H
10:00Parțial noros15.3°15.3°0%32%SE 3.2 KM/H
11:00Parțial noros18°18°0%27%SSE 3.6 KM/H
12:00Soare18.5°18.5°0%26%SSE 3.6 KM/H
13:00Parțial noros19.1°19.1°0%25%SSE 4 KM/H
14:00Soare19.6°19.6°0%25%SSE 4 KM/H
15:00Soare17.8°17.8°0%30%SSE 3.2 KM/H
16:00Soare16.1°16.1°0%36%SSE 2.9 KM/H
17:00Soare14.3°14.3°0%42%SSE 2.2 KM/H
18:00Parțial noros13°13.1°0%42%ESE 2.5 KM/H
19:00Senin11.6°11.9°0%43%ENE 2.9 KM/H
20:00Parțial noros10.3°10.7°0%43%NNE 3.2 KM/H
21:00Parțial noros10.1°10.5°0%43%NNE 3.2 KM/H
22:00Parțial noros9.9°10.3°0%42%NNE 3.2 KM/H
23:00Parțial noros9.7°10.1°0%41%NNE 3.2 KM/H